KHSV/HSV METAR and TAF weather

Enter ICAO airport designator
Station Type Date Time Source
KHSV METAR 2019/12/07 16:53 UTC NOAA

KHSV 071653Z 00000KT 10SM CLR 15/06 A3028 RMK AO2 SLP251 T01500056 $


Station Type Date Time Source
KHSV Decoded METAR 2019/12/07 16:53 UTC NOAA

HUNTSVILLE INTERNATIONAL JONES FIELD, AL, United States (KHSV) 34-39N 086-47W 191M
Dec 07, 2019 - 11:53 AM EST / 2019.12.07 1653 UTC
Wind: Calm:0
Visibility: 10 mile(s):0
Sky conditions: clear
Temperature: 59.0 F (15.0 C)
Dew Point: 42.1 F (5.6 C)
Relative Humidity: 53%
Pressure (altimeter): 30.28 in. Hg (1025 hPa)
ob: KHSV 071653Z 00000KT 10SM CLR 15/06 A3028 RMK AO2 SLP251 T01500056
cycle: 17

Station Type Date Time Source
KHSV TAF 2019/12/07 18:39 UTC NOAA

TAF KHSV 071736Z 0718/0818 VRB04KT P6SM SKC
FM081000 13007KT P6SM SCT045
FM081200 13008G15KT P6SM BKN035
FM081400 14012G23KT P6SM BKN035

Example: see airport list